createdAt,value
2023-03-27T00:01:46.938Z,1.40
2023-03-27T00:03:51.798Z,1.75
2023-03-27T00:06:01.877Z,1.60
2023-03-27T00:08:06.107Z,1.65
2023-03-27T00:10:10.188Z,1.60
2023-03-27T00:12:13.473Z,1.30
2023-03-27T00:14:17.218Z,1.40
2023-03-27T00:16:21.698Z,1.55
2023-03-27T00:18:28.288Z,1.42
2023-03-27T00:20:37.237Z,1.52
2023-03-27T00:22:41.036Z,1.05
2023-03-27T00:24:44.331Z,1.40
2023-03-27T00:26:47.554Z,1.45
2023-03-27T00:28:51.197Z,1.35
2023-03-27T00:30:55.949Z,1.15
2023-03-27T00:33:00.161Z,1.38
2023-03-27T00:35:05.181Z,1.63
2023-03-27T00:37:08.475Z,1.35
2023-03-27T00:39:11.797Z,1.73
2023-03-27T00:41:15.202Z,1.25
2023-03-27T00:43:23.610Z,1.63
2023-03-27T00:45:30.726Z,1.50
2023-03-27T00:47:37.103Z,1.50
2023-03-27T00:49:41.231Z,1.30
2023-03-27T00:51:48.133Z,1.60
2023-03-27T00:53:52.824Z,1.52
2023-03-27T00:55:59.314Z,1.27
2023-03-27T00:58:06.483Z,1.38
2023-03-27T01:00:12.916Z,1.40
2023-03-27T01:02:18.361Z,2.17
2023-03-27T01:04:23.306Z,1.33
2023-03-27T01:06:27.706Z,1.50
2023-03-27T01:08:37.157Z,1.63
2023-03-27T01:10:54.381Z,1.40
2023-03-27T01:13:05.701Z,1.27
2023-03-27T01:15:25.002Z,1.42
2023-03-27T01:17:43.561Z,1.17
2023-03-27T01:20:18.157Z,1.40
2023-03-27T01:23:07.099Z,1.13
2023-03-27T01:25:39.798Z,1.25
2023-03-27T01:28:04.661Z,1.58
2023-03-27T01:30:17.261Z,1.20
2023-03-27T01:32:45.117Z,1.20
2023-03-27T01:35:11.868Z,1.38
2023-03-27T01:37:37.815Z,1.30
2023-03-27T01:39:51.474Z,1.80
2023-03-27T01:42:01.881Z,1.50
2023-03-27T01:44:14.782Z,1.08
2023-03-27T01:48:31.963Z,1.08
2023-03-27T01:50:40.210Z,1.03
2023-03-27T01:52:49.300Z,1.52
2023-03-27T01:54:58.431Z,1.25
2023-03-27T01:57:08.392Z,1.05
2023-03-27T01:59:16.383Z,1.27
2023-03-27T02:01:25.675Z,1.40
2023-03-27T02:03:33.711Z,1.50
2023-03-27T02:05:41.454Z,1.23
2023-03-27T02:07:51.563Z,1.35
2023-03-27T02:10:00.994Z,1.38
2023-03-27T02:12:11.906Z,1.27
2023-03-27T02:14:20.237Z,1.08
2023-03-27T02:16:28.857Z,1.25
2023-03-27T02:18:37.012Z,1.10
2023-03-27T02:20:42.425Z,1.55
2023-03-27T02:22:48.931Z,1.10
2023-03-27T02:24:56.690Z,1.33
2023-03-27T02:27:07.741Z,1.10
2023-03-27T02:29:33.864Z,1.35
2023-03-27T02:31:59.576Z,1.60
2023-03-27T02:34:29.923Z,1.00
2023-03-27T02:36:43.488Z,1.20
2023-03-27T02:38:53.956Z,1.30
2023-03-27T02:41:06.618Z,1.20
2023-03-27T02:43:29.196Z,1.52
2023-03-27T02:45:44.335Z,1.17
2023-03-27T02:47:53.961Z,1.95
2023-03-27T02:50:03.057Z,1.60
2023-03-27T02:52:12.046Z,1.70
2023-03-27T02:54:18.579Z,1.83
2023-03-27T02:56:26.446Z,1.80
2023-03-27T02:58:35.476Z,1.50
2023-03-27T03:01:02.302Z,1.73
2023-03-27T03:03:21.764Z,1.40
2023-03-27T03:05:33.929Z,1.40
2023-03-27T03:07:38.229Z,1.23
2023-03-27T03:09:42.080Z,1.45
2023-03-27T03:11:50.181Z,1.50
2023-03-27T03:13:53.967Z,1.38
2023-03-27T03:15:57.450Z,1.50
2023-03-27T03:18:01.184Z,1.35
2023-03-27T03:20:05.995Z,1.73
2023-03-27T03:22:09.997Z,1.75
2023-03-27T03:24:14.460Z,1.60
2023-03-27T03:26:18.723Z,1.63
2023-03-27T03:28:26.191Z,1.30
2023-03-27T03:30:30.419Z,1.50
2023-03-27T03:32:44.167Z,1.80
2023-03-27T03:34:47.689Z,1.33
2023-03-27T03:36:55.277Z,1.65
2023-03-27T03:39:05.644Z,1.60
2023-03-27T03:41:09.835Z,1.60
2023-03-27T03:43:13.124Z,2.15
2023-03-27T03:45:18.139Z,1.63
2023-03-27T03:47:21.507Z,1.65
2023-03-27T03:49:25.818Z,1.70
2023-03-27T03:51:31.402Z,1.73
2023-03-27T03:53:34.575Z,1.80
2023-03-27T03:55:38.282Z,1.75
2023-03-27T03:57:41.946Z,1.75
2023-03-27T03:59:51.831Z,1.63
2023-03-27T04:02:12.340Z,1.95
2023-03-27T04:04:15.736Z,1.73
2023-03-27T04:06:43.279Z,1.60
2023-03-27T04:08:46.481Z,2.10
2023-03-27T04:11:10.341Z,2.03
2023-03-27T04:13:26.274Z,2.40
2023-03-27T04:15:35.451Z,2.30
2023-03-27T04:17:40.811Z,2.35
2023-03-27T04:19:47.086Z,2.10
2023-03-27T04:21:54.153Z,2.38
2023-03-27T04:24:02.345Z,2.85
2023-03-27T04:26:17.640Z,2.65
2023-03-27T04:28:47.202Z,2.47
2023-03-27T04:31:11.422Z,2.58
2023-03-27T04:33:39.348Z,2.55
2023-03-27T04:36:06.692Z,2.45
2023-03-27T04:38:31.642Z,2.65
2023-03-27T04:40:38.258Z,2.47
2023-03-27T04:42:44.095Z,2.80
2023-03-27T04:44:48.499Z,2.45
2023-03-27T04:46:52.000Z,2.50
2023-03-27T04:48:56.702Z,2.63
2023-03-27T04:51:16.186Z,2.75
2023-03-27T04:53:21.350Z,2.45
2023-03-27T04:55:26.657Z,1.98
2023-03-27T04:57:30.929Z,2.50
2023-03-27T04:59:37.498Z,1.95
2023-03-27T05:02:01.924Z,1.90
2023-03-27T05:04:14.403Z,2.53
2023-03-27T05:06:35.255Z,1.85
2023-03-27T05:08:38.961Z,1.98
2023-03-27T05:10:42.652Z,2.10
2023-03-27T05:12:47.877Z,2.20
2023-03-27T05:14:52.434Z,2.15
2023-03-27T05:17:10.231Z,1.90
2023-03-27T05:19:19.429Z,1.90
2023-03-27T05:21:28.428Z,1.95
2023-03-27T05:23:32.680Z,1.90
2023-03-27T05:25:36.797Z,2.30
2023-03-27T05:27:48.981Z,1.92
2023-03-27T05:29:52.783Z,1.60
2023-03-27T05:31:56.150Z,1.83
2023-03-27T05:34:19.346Z,2.28
2023-03-27T05:36:23.301Z,1.70
2023-03-27T05:38:26.626Z,2.05
2023-03-27T05:40:45.953Z,2.00
2023-03-27T05:42:53.315Z,2.50
2023-03-27T05:44:57.001Z,1.95
2023-03-27T05:47:01.243Z,2.85
2023-03-27T05:49:06.406Z,1.92
2023-03-27T05:51:11.376Z,2.08
2023-03-27T05:53:15.835Z,1.90
2023-03-27T05:55:31.550Z,2.20
2023-03-27T05:57:35.048Z,2.30
2023-03-27T05:59:38.230Z,2.42
2023-03-27T06:01:58.584Z,2.35
2023-03-27T06:04:11.157Z,2.45
2023-03-27T06:06:36.151Z,2.67
2023-03-27T06:08:40.795Z,2.22
2023-03-27T06:10:45.840Z,2.05
2023-03-27T06:13:01.473Z,2.40
2023-03-27T06:15:12.118Z,2.08
2023-03-27T06:17:23.972Z,2.00
2023-03-27T06:19:35.080Z,2.00
2023-03-27T06:21:40.983Z,2.38
2023-03-27T06:23:44.549Z,2.20
2023-03-27T06:25:49.622Z,2.42
2023-03-27T06:27:53.681Z,2.05
2023-03-27T06:29:56.981Z,1.98
2023-03-27T06:32:01.727Z,1.92
2023-03-27T06:34:11.219Z,2.75
2023-03-27T06:36:22.654Z,2.20
2023-03-27T06:38:30.949Z,1.80
2023-03-27T06:40:35.491Z,1.67
2023-03-27T06:42:38.880Z,1.48
2023-03-27T06:45:12.120Z,1.85
2023-03-27T06:47:54.404Z,1.58
2023-03-27T06:50:08.228Z,1.30
2023-03-27T06:52:11.463Z,1.45
2023-03-27T06:54:16.513Z,1.80
2023-03-27T06:56:24.652Z,1.88
2023-03-27T06:58:48.156Z,1.20
2023-03-27T07:00:51.518Z,1.83
2023-03-27T07:02:56.552Z,1.50
2023-03-27T07:05:27.772Z,1.45
2023-03-27T07:07:31.297Z,1.40
2023-03-27T07:09:38.717Z,1.27
2023-03-27T07:11:43.754Z,1.20
2023-03-27T07:13:47.048Z,1.70
2023-03-27T07:15:58.329Z,1.60
2023-03-27T07:18:04.977Z,1.38
2023-03-27T07:20:09.961Z,1.83
2023-03-27T07:22:13.157Z,1.63
2023-03-27T07:24:16.625Z,1.73
2023-03-27T07:26:21.960Z,1.52
2023-03-27T07:28:32.843Z,1.65
2023-03-27T07:30:44.130Z,1.40
2023-03-27T07:32:47.681Z,1.40
2023-03-27T07:34:51.665Z,1.60
2023-03-27T07:37:16.113Z,1.38
2023-03-27T07:39:39.284Z,1.25
2023-03-27T07:41:44.117Z,1.40
2023-03-27T07:44:10.178Z,1.48
2023-03-27T07:46:26.491Z,1.67
2023-03-27T07:48:31.136Z,1.38
2023-03-27T07:50:35.948Z,1.50
2023-03-27T07:52:43.574Z,1.13
2023-03-27T07:54:48.767Z,1.10
2023-03-27T07:56:55.611Z,1.55
2023-03-27T07:59:08.940Z,1.10
2023-03-27T08:01:12.316Z,1.30
2023-03-27T08:03:15.799Z,1.17
2023-03-27T08:05:21.540Z,1.23
2023-03-27T08:07:40.763Z,1.20
2023-03-27T08:09:44.144Z,1.00
2023-03-27T08:11:47.426Z,1.30
2023-03-27T08:13:53.180Z,1.05
2023-03-27T08:16:03.912Z,1.67
2023-03-27T08:18:07.844Z,1.05
2023-03-27T08:20:15.326Z,1.20
2023-03-27T08:22:24.722Z,1.10
2023-03-27T08:24:47.089Z,1.27
2023-03-27T08:26:59.579Z,1.08
2023-03-27T08:29:04.596Z,1.30
2023-03-27T08:31:11.880Z,0.90
2023-03-27T08:33:15.267Z,1.10
2023-03-27T08:35:19.259Z,1.08
2023-03-27T08:37:22.705Z,1.40
2023-03-27T08:39:46.857Z,1.17
2023-03-27T08:41:55.182Z,1.10
2023-03-27T08:44:09.960Z,0.93
2023-03-27T08:46:21.258Z,1.23
2023-03-27T08:48:33.337Z,0.90
2023-03-27T08:50:44.001Z,0.90
2023-03-27T08:52:54.039Z,1.20
2023-03-27T08:55:13.521Z,1.33
2023-03-27T08:57:28.317Z,1.15
2023-03-27T08:59:37.949Z,1.02
2023-03-27T09:01:46.258Z,1.10
2023-03-27T09:03:59.547Z,0.90
2023-03-27T09:08:25.872Z,0.90
2023-03-27T09:10:36.936Z,0.93
2023-03-27T09:13:04.281Z,0.63
2023-03-27T09:15:17.210Z,0.77
2023-03-27T09:17:32.514Z,0.80
2023-03-27T09:19:48.270Z,0.80
2023-03-27T09:22:01.228Z,0.90
2023-03-27T09:24:29.490Z,0.60
2023-03-27T09:27:07.050Z,1.10
2023-03-27T09:29:25.595Z,0.90
2023-03-27T09:31:58.344Z,0.70
2023-03-27T09:34:05.495Z,0.60
2023-03-27T09:36:09.774Z,0.98
2023-03-27T09:38:25.044Z,0.95
2023-03-27T09:40:33.917Z,0.70
2023-03-27T09:42:51.492Z,0.70
2023-03-27T09:44:57.427Z,0.60
2023-03-27T09:47:12.338Z,0.60
2023-03-27T09:49:17.458Z,0.70
2023-03-27T09:51:41.006Z,0.70
2023-03-27T09:53:59.390Z,0.65
2023-03-27T09:56:14.472Z,0.60
2023-03-27T09:58:36.393Z,0.40
2023-03-27T10:00:39.689Z,0.82
2023-03-27T10:02:45.719Z,0.75
2023-03-27T10:05:00.824Z,0.50
2023-03-27T10:07:24.134Z,0.82
2023-03-27T10:10:08.081Z,1.08
2023-03-27T10:12:23.455Z,0.73
2023-03-27T10:14:27.795Z,1.30
2023-03-27T10:16:41.152Z,1.00
2023-03-27T10:18:50.020Z,1.30
2023-03-27T10:20:57.826Z,0.85
2023-03-27T10:23:04.420Z,1.20
2023-03-27T10:25:18.442Z,1.20
2023-03-27T10:29:55.316Z,1.10
2023-03-27T10:32:00.359Z,1.10
2023-03-27T10:34:36.685Z,0.85
2023-03-27T10:37:03.351Z,1.10
2023-03-27T10:39:11.707Z,1.08
2023-03-27T10:41:43.648Z,0.90
2023-03-27T10:43:50.809Z,1.38
2023-03-27T10:45:59.361Z,0.95
2023-03-27T10:48:08.570Z,0.90
2023-03-27T10:50:21.035Z,0.90
2023-03-27T10:52:29.659Z,1.05
2023-03-27T10:54:51.238Z,1.17
2023-03-27T10:57:02.452Z,0.80
2023-03-27T10:59:12.995Z,0.80
2023-03-27T11:01:22.866Z,0.70
2023-03-27T11:03:35.463Z,1.05
2023-03-27T11:05:46.566Z,1.02
2023-03-27T11:08:07.236Z,0.98
2023-03-27T11:10:18.468Z,0.88
2023-03-27T11:12:23.736Z,0.90
2023-03-27T11:14:36.242Z,0.90
2023-03-27T11:16:50.538Z,0.90
2023-03-27T11:19:43.009Z,0.90
2023-03-27T11:22:12.986Z,0.95
2023-03-27T11:24:23.542Z,1.05
2023-03-27T11:26:49.041Z,0.80
2023-03-27T11:29:02.091Z,0.90
2023-03-27T11:31:21.308Z,1.00
2023-03-27T11:33:41.935Z,0.93
2023-03-27T11:35:54.748Z,1.10
2023-03-27T11:38:31.404Z,1.10
2023-03-27T11:40:42.157Z,0.95
2023-03-27T11:42:47.719Z,0.60
2023-03-27T11:44:51.706Z,0.68
2023-03-27T11:47:34.163Z,0.60
2023-03-27T11:49:53.419Z,1.02
2023-03-27T11:52:09.584Z,0.73
2023-03-27T11:54:25.886Z,0.60
2023-03-27T11:56:46.727Z,0.98
2023-03-27T11:59:11.485Z,0.80
2023-03-27T12:01:27.363Z,0.73
2023-03-27T12:04:11.938Z,0.85
2023-03-27T12:06:47.486Z,0.70
2023-03-27T12:09:17.153Z,0.80
2023-03-27T12:11:47.619Z,0.70
2023-03-27T12:14:17.653Z,0.65
2023-03-27T12:16:49.664Z,0.63
2023-03-27T12:19:21.155Z,0.90
2023-03-27T12:21:56.529Z,0.95
2023-03-27T12:24:46.925Z,0.60
2023-03-27T12:27:44.868Z,1.00
2023-03-27T12:30:21.150Z,1.00
2023-03-27T12:32:45.680Z,0.98
2023-03-27T12:34:54.483Z,0.80
2023-03-27T12:37:03.340Z,0.80
2023-03-27T12:39:13.839Z,1.08
2023-03-27T12:41:23.809Z,1.10
2023-03-27T12:43:41.145Z,0.93
2023-03-27T12:46:20.713Z,1.13
2023-03-27T12:48:23.940Z,1.10
2023-03-27T12:50:32.666Z,0.98
2023-03-27T12:52:39.272Z,1.10
2023-03-27T12:55:09.336Z,0.80
2023-03-27T12:57:44.418Z,0.70
2023-03-27T12:59:56.065Z,1.08
2023-03-27T13:02:39.052Z,0.90
2023-03-27T13:05:26.911Z,1.15
2023-03-27T13:07:40.114Z,1.20
2023-03-27T13:09:58.538Z,0.98
2023-03-27T13:12:17.369Z,1.17
2023-03-27T13:14:45.180Z,0.80
2023-03-27T13:17:21.615Z,0.90
2023-03-27T13:19:36.099Z,1.02
2023-03-27T13:22:01.019Z,1.00
2023-03-27T13:24:23.842Z,1.17
2023-03-27T13:26:44.005Z,1.00
2023-03-27T13:28:50.231Z,0.90
2023-03-27T13:30:56.330Z,1.40
2023-03-27T13:33:29.414Z,0.95
2023-03-27T13:35:40.770Z,1.15
2023-03-27T13:37:58.149Z,1.00
2023-03-27T13:40:20.820Z,1.48
2023-03-27T13:42:28.881Z,1.63
2023-03-27T13:44:59.888Z,1.25
2023-03-27T13:47:29.308Z,1.40
2023-03-27T13:50:03.235Z,1.10
2023-03-27T13:52:51.115Z,1.45
2023-03-27T13:55:34.667Z,0.80
2023-03-27T13:58:21.350Z,1.27
2023-03-27T14:00:41.644Z,1.00
2023-03-27T14:03:30.311Z,0.90
2023-03-27T14:06:10.360Z,0.90
2023-03-27T14:11:03.717Z,0.95
2023-03-27T14:13:25.553Z,1.08
2023-03-27T14:15:50.108Z,1.20
2023-03-27T14:20:27.861Z,1.15
2023-03-27T14:22:41.166Z,1.10
2023-03-27T14:24:49.029Z,1.40
2023-03-27T14:27:07.140Z,1.42
2023-03-27T14:29:11.828Z,1.63
2023-03-27T14:31:22.750Z,0.95
2023-03-27T14:33:39.219Z,1.20
2023-03-27T14:35:45.658Z,1.02
2023-03-27T14:38:00.155Z,1.02
2023-03-27T14:40:23.124Z,1.17
2023-03-27T14:42:32.600Z,1.17
2023-03-27T14:44:36.472Z,1.00
2023-03-27T14:46:48.915Z,1.00
2023-03-27T14:48:54.932Z,1.27
2023-03-27T14:51:02.825Z,0.98
2023-03-27T14:53:16.279Z,1.00
2023-03-27T14:55:52.941Z,0.80
2023-03-27T14:58:20.313Z,0.90
2023-03-27T15:00:27.633Z,0.93
2023-03-27T15:02:34.851Z,1.17
2023-03-27T15:04:41.925Z,1.08
2023-03-27T15:06:50.068Z,1.55
2023-03-27T15:09:19.702Z,1.35
2023-03-27T15:11:49.084Z,1.00
2023-03-27T15:13:57.778Z,1.50
2023-03-27T15:16:09.613Z,1.00
2023-03-27T15:18:17.918Z,1.13
2023-03-27T15:20:25.018Z,1.30
2023-03-27T15:22:31.488Z,1.30
2023-03-27T15:24:43.408Z,1.10
2023-03-27T15:26:49.370Z,1.08
2023-03-27T15:29:01.786Z,1.50
2023-03-27T15:31:06.573Z,1.10
2023-03-27T15:33:17.392Z,1.10
2023-03-27T15:35:27.393Z,1.70
2023-03-27T15:37:31.874Z,1.30
2023-03-27T15:39:39.237Z,1.10
2023-03-27T15:41:44.594Z,1.35
2023-03-27T15:43:47.880Z,1.30
2023-03-27T15:46:04.258Z,1.30
2023-03-27T15:48:19.101Z,1.40
2023-03-27T15:50:24.688Z,1.25
2023-03-27T15:52:32.551Z,1.20
2023-03-27T15:54:37.483Z,1.00
2023-03-27T15:56:43.656Z,1.25
2023-03-27T15:58:51.451Z,1.15
2023-03-27T16:01:00.571Z,1.10
2023-03-27T16:03:18.250Z,0.82
2023-03-27T16:05:21.698Z,1.20
2023-03-27T16:07:30.224Z,1.08
2023-03-27T16:09:39.771Z,1.02
2023-03-27T16:11:45.809Z,1.10
2023-03-27T16:13:56.216Z,0.90
2023-03-27T16:16:01.976Z,1.10
2023-03-27T16:18:18.799Z,0.82
2023-03-27T16:20:37.352Z,1.13
2023-03-27T16:22:41.104Z,0.93
2023-03-27T16:24:45.855Z,1.10
2023-03-27T16:26:50.293Z,1.48
2023-03-27T16:28:54.168Z,1.20
2023-03-27T16:30:57.920Z,1.13
2023-03-27T16:33:01.458Z,1.33
2023-03-27T16:35:04.929Z,1.75
2023-03-27T16:37:08.657Z,1.50
2023-03-27T16:39:11.864Z,1.15
2023-03-27T16:41:18.497Z,1.52
2023-03-27T16:43:21.622Z,2.40
2023-03-27T16:45:25.385Z,1.42
2023-03-27T16:47:29.011Z,1.60
2023-03-27T16:49:32.194Z,1.98
2023-03-27T16:51:35.849Z,2.38
2023-03-27T16:53:39.027Z,1.83
2023-03-27T16:55:42.264Z,1.52
2023-03-27T16:57:47.232Z,1.70
2023-03-27T16:59:50.429Z,2.28
2023-03-27T17:01:54.555Z,2.97
2023-03-27T17:03:58.572Z,1.67
2023-03-27T17:06:03.475Z,1.85
2023-03-27T17:08:07.494Z,2.20
2023-03-27T17:10:11.478Z,2.17
2023-03-27T17:12:14.745Z,2.58
2023-03-27T17:14:19.567Z,2.05
2023-03-27T17:16:22.801Z,2.00
2023-03-27T17:18:26.387Z,2.00
2023-03-27T17:20:29.608Z,1.40
2023-03-27T17:22:32.870Z,1.38
2023-03-27T17:24:49.309Z,1.58
2023-03-27T17:26:59.189Z,1.50
2023-03-27T17:29:03.353Z,1.27
2023-03-27T17:31:08.128Z,1.30
2023-03-27T17:33:12.116Z,1.20
2023-03-27T17:35:15.457Z,1.30
2023-03-27T17:37:18.774Z,1.33
2023-03-27T17:39:22.305Z,1.42
2023-03-27T17:41:27.181Z,1.65
2023-03-27T17:43:30.543Z,2.35
2023-03-27T17:45:33.922Z,1.92
2023-03-27T17:47:38.570Z,1.50
2023-03-27T17:49:43.215Z,1.85
2023-03-27T17:51:46.503Z,1.95
2023-03-27T17:53:49.880Z,2.03
2023-03-27T17:55:53.236Z,2.40
2023-03-27T17:58:08.345Z,2.08
2023-03-27T18:00:15.244Z,1.75
2023-03-27T18:02:21.410Z,1.85
2023-03-27T18:04:31.015Z,1.40
2023-03-27T18:06:34.372Z,1.70
2023-03-27T18:08:37.818Z,2.00
2023-03-27T18:10:45.062Z,1.73
2023-03-27T18:12:49.027Z,1.33
2023-03-27T18:14:52.334Z,1.98
2023-03-27T18:16:55.526Z,1.58
2023-03-27T18:18:58.783Z,1.50
2023-03-27T18:21:03.521Z,1.70
2023-03-27T18:23:07.209Z,2.03
2023-03-27T18:25:11.662Z,1.90
2023-03-27T18:27:16.467Z,1.70
2023-03-27T18:29:21.244Z,2.33
2023-03-27T18:31:25.126Z,1.65
2023-03-27T18:33:28.718Z,2.10
2023-03-27T18:35:32.598Z,1.70
2023-03-27T18:37:37.315Z,1.52
2023-03-27T18:39:40.736Z,1.60
2023-03-27T18:41:43.946Z,2.03
2023-03-27T18:43:47.217Z,1.98
2023-03-27T18:45:57.270Z,1.65
2023-03-27T18:48:01.195Z,1.40
2023-03-27T18:50:05.086Z,1.50
2023-03-27T18:52:09.953Z,2.25
2023-03-27T18:54:14.702Z,1.85
2023-03-27T18:56:18.656Z,1.60
2023-03-27T18:58:24.335Z,1.55
2023-03-27T19:00:27.960Z,1.52
2023-03-27T19:02:32.246Z,1.70
2023-03-27T19:04:36.029Z,1.75
2023-03-27T19:06:39.289Z,1.55
2023-03-27T19:08:45.431Z,2.13
2023-03-27T19:10:50.139Z,1.92
2023-03-27T19:12:56.497Z,2.17
2023-03-27T19:15:20.245Z,1.70
2023-03-27T19:17:42.522Z,1.63
2023-03-27T19:20:05.050Z,1.77
2023-03-27T19:22:14.982Z,2.22
2023-03-27T19:24:22.605Z,2.33
2023-03-27T19:26:27.206Z,1.55
2023-03-27T19:28:30.612Z,1.58
2023-03-27T19:30:35.540Z,2.20
2023-03-27T19:32:39.301Z,1.90
2023-03-27T19:34:43.220Z,1.90
2023-03-27T19:36:46.911Z,1.30
2023-03-27T19:38:52.453Z,1.90
2023-03-27T19:40:56.243Z,1.70
2023-03-27T19:43:01.030Z,2.13
2023-03-27T19:45:04.531Z,1.80
2023-03-27T19:47:09.679Z,2.10
2023-03-27T19:49:16.184Z,2.08
2023-03-27T19:51:31.098Z,2.05
2023-03-27T19:53:35.303Z,2.05
2023-03-27T19:55:40.074Z,2.03
2023-03-27T19:57:43.565Z,1.60
2023-03-27T19:59:48.246Z,2.00
2023-03-27T20:01:51.662Z,2.28
2023-03-27T20:03:57.085Z,2.05
2023-03-27T20:06:07.644Z,1.98
2023-03-27T20:08:11.615Z,1.98
2023-03-27T20:10:15.905Z,1.98
2023-03-27T20:12:19.803Z,2.05
2023-03-27T20:14:23.125Z,2.30
2023-03-27T20:16:28.866Z,2.08
2023-03-27T20:18:32.844Z,2.00
2023-03-27T20:20:37.772Z,2.25
2023-03-27T20:22:57.086Z,1.95
2023-03-27T20:25:01.070Z,2.10
2023-03-27T20:27:07.203Z,2.22
2023-03-27T20:29:13.629Z,2.38
2023-03-27T20:31:17.267Z,2.50
2023-03-27T20:33:22.113Z,1.90
2023-03-27T20:35:25.584Z,2.60
2023-03-27T20:37:30.875Z,1.90
2023-03-27T20:39:53.800Z,2.50
2023-03-27T20:41:59.360Z,2.20
2023-03-27T20:44:03.799Z,2.38
2023-03-27T20:46:10.714Z,2.00
2023-03-27T20:48:18.091Z,2.40
2023-03-27T20:50:31.145Z,2.10
2023-03-27T20:52:34.555Z,2.10
2023-03-27T20:54:38.354Z,1.90
2023-03-27T20:56:44.176Z,2.00
2023-03-27T20:58:47.623Z,2.10
2023-03-27T21:00:52.094Z,1.75
2023-03-27T21:02:55.621Z,1.83
2023-03-27T21:04:58.946Z,2.17
2023-03-27T21:07:05.178Z,2.10
2023-03-27T21:09:09.326Z,1.75
2023-03-27T21:11:12.767Z,2.20
2023-03-27T21:13:16.035Z,1.75
2023-03-27T21:15:19.555Z,1.83
2023-03-27T21:17:22.902Z,2.28
2023-03-27T21:19:26.119Z,2.38
2023-03-27T21:21:31.244Z,2.10
2023-03-27T21:23:36.984Z,2.30
2023-03-27T21:25:40.285Z,2.35
2023-03-27T21:27:43.916Z,1.90
2023-03-27T21:29:47.315Z,2.38
2023-03-27T21:31:50.942Z,2.42
2023-03-27T21:33:56.716Z,2.10
2023-03-27T21:36:01.864Z,2.33
2023-03-27T21:38:05.517Z,2.03
2023-03-27T21:40:11.328Z,2.60
2023-03-27T21:42:14.679Z,2.00
2023-03-27T21:44:17.987Z,2.33
2023-03-27T21:46:21.294Z,2.67
2023-03-27T21:48:24.701Z,3.08
2023-03-27T21:50:27.987Z,2.15
2023-03-27T21:52:31.208Z,2.53
2023-03-27T21:54:34.677Z,2.88
2023-03-27T21:56:39.316Z,3.05
2023-03-27T21:58:42.600Z,2.65
2023-03-27T22:00:46.465Z,2.85
2023-03-27T22:02:49.760Z,2.58
2023-03-27T22:04:53.169Z,2.10
2023-03-27T22:06:56.517Z,2.15
2023-03-27T22:08:59.779Z,2.15
2023-03-27T22:11:03.034Z,2.10
2023-03-27T22:13:07.782Z,2.15
2023-03-27T22:15:11.979Z,2.00
2023-03-27T22:17:15.700Z,2.53
2023-03-27T22:19:19.230Z,1.95
2023-03-27T22:21:24.770Z,1.90
2023-03-27T22:23:28.078Z,1.90
2023-03-27T22:25:31.424Z,2.10
2023-03-27T22:27:35.030Z,2.13
2023-03-27T22:29:39.762Z,1.58
2023-03-27T22:31:43.037Z,1.80
2023-03-27T22:33:46.525Z,1.70
2023-03-27T22:35:50.099Z,1.40
2023-03-27T22:37:53.385Z,1.00
2023-03-27T22:39:56.643Z,1.20
2023-03-27T22:42:00.001Z,1.50
2023-03-27T22:44:03.467Z,1.50
2023-03-27T22:46:10.120Z,1.52
2023-03-27T22:48:13.751Z,2.15
2023-03-27T22:50:17.196Z,1.27
2023-03-27T22:52:20.708Z,1.48
2023-03-27T22:54:23.922Z,1.20
2023-03-27T22:56:27.120Z,1.10
2023-03-27T22:58:30.569Z,1.20
2023-03-27T23:00:33.763Z,1.35
2023-03-27T23:02:38.543Z,1.45
2023-03-27T23:04:41.970Z,1.35
2023-03-27T23:06:45.426Z,1.35
2023-03-27T23:08:49.237Z,1.45
2023-03-27T23:10:56.764Z,1.25
2023-03-27T23:12:59.960Z,1.75
2023-03-27T23:15:03.343Z,1.00
2023-03-27T23:17:06.692Z,1.10
2023-03-27T23:19:11.495Z,1.02
2023-03-27T23:21:16.759Z,1.00
2023-03-27T23:23:20.243Z,0.90
2023-03-27T23:25:23.486Z,0.95
2023-03-27T23:27:27.075Z,1.05
2023-03-27T23:29:30.316Z,1.30
2023-03-27T23:31:33.735Z,1.38
2023-03-27T23:33:39.538Z,1.08
2023-03-27T23:35:44.233Z,1.15
2023-03-27T23:37:47.784Z,1.20
2023-03-27T23:39:51.051Z,1.08
2023-03-27T23:41:54.253Z,0.95
2023-03-27T23:43:57.677Z,1.25
2023-03-27T23:46:01.211Z,1.65
2023-03-27T23:48:04.715Z,1.40
2023-03-27T23:50:08.836Z,1.60
2023-03-27T23:52:13.822Z,1.25
2023-03-27T23:54:17.111Z,1.15
2023-03-27T23:56:20.308Z,1.27
2023-03-27T23:58:23.587Z,1.20
